createdAt,value
2019-05-29T00:00:18.256Z,1.80
2019-05-29T00:02:48.810Z,1.50
2019-05-29T00:05:18.471Z,1.57
2019-05-29T00:07:47.795Z,1.62
2019-05-29T00:10:18.361Z,1.50
2019-05-29T00:12:47.968Z,1.77
2019-05-29T00:15:18.965Z,1.65
2019-05-29T00:17:48.269Z,1.55
2019-05-29T00:20:18.660Z,1.60
2019-05-29T00:22:48.084Z,1.52
2019-05-29T00:25:18.774Z,1.50
2019-05-29T00:27:48.131Z,1.52
2019-05-29T00:30:17.584Z,1.50
2019-05-29T00:32:46.951Z,1.50
2019-05-29T00:35:16.453Z,1.40
2019-05-29T00:37:45.738Z,1.55
2019-05-29T00:40:15.534Z,1.35
2019-05-29T00:42:44.914Z,1.62
2019-05-29T00:45:15.644Z,1.65
2019-05-29T00:47:45.030Z,1.42
2019-05-29T00:50:14.422Z,1.50
2019-05-29T00:52:43.720Z,1.70
2019-05-29T00:55:14.685Z,1.50
2019-05-29T00:57:44.073Z,1.62
2019-05-29T01:00:13.539Z,1.40
2019-05-29T01:02:42.977Z,1.47
2019-05-29T01:05:12.423Z,1.52
2019-05-29T01:07:41.719Z,1.80
2019-05-29T01:10:12.997Z,1.60
2019-05-29T01:12:42.529Z,1.87
2019-05-29T01:15:13.226Z,1.45
2019-05-29T01:17:42.699Z,1.77
2019-05-29T01:20:12.302Z,1.50
2019-05-29T01:22:41.608Z,1.45
2019-05-29T01:25:12.374Z,1.57
2019-05-29T01:27:42.279Z,1.50
2019-05-29T01:30:13.164Z,1.50
2019-05-29T01:32:42.528Z,1.30
2019-05-29T01:35:12.008Z,1.40
2019-05-29T01:37:41.308Z,1.55
2019-05-29T01:40:20.006Z,1.72
2019-05-29T01:42:41.968Z,1.50
2019-05-29T01:45:11.569Z,1.50
2019-05-29T01:47:40.935Z,1.15
2019-05-29T01:50:10.373Z,1.50
2019-05-29T01:52:39.672Z,1.20
2019-05-29T01:55:09.254Z,1.30
2019-05-29T01:57:38.556Z,1.30
2019-05-29T02:00:08.871Z,1.80
2019-05-29T02:02:38.239Z,1.40
2019-05-29T02:05:07.800Z,1.37
2019-05-29T02:07:37.114Z,1.30
2019-05-29T02:10:09.477Z,1.10
2019-05-29T02:12:38.807Z,1.50
2019-05-29T02:15:22.981Z,1.45
2019-05-29T02:17:39.445Z,1.77
2019-05-29T02:20:09.307Z,1.30
2019-05-29T02:22:38.594Z,1.50
2019-05-29T02:25:08.070Z,1.50
2019-05-29T02:27:37.367Z,1.20
2019-05-29T02:30:07.625Z,1.55
2019-05-29T02:32:36.932Z,1.30
2019-05-29T02:35:07.369Z,1.40
2019-05-29T02:37:37.762Z,1.35
2019-05-29T02:40:08.024Z,1.30
2019-05-29T02:42:37.327Z,1.40
2019-05-29T02:45:08.403Z,1.45
2019-05-29T02:47:37.724Z,1.30
2019-05-29T02:50:08.064Z,1.52
2019-05-29T02:52:37.388Z,1.37
2019-05-29T02:55:09.527Z,1.22
2019-05-29T02:57:38.857Z,1.30
2019-05-29T03:00:08.714Z,1.37
2019-05-29T03:02:38.084Z,1.20
2019-05-29T03:05:07.663Z,1.30
2019-05-29T03:07:38.064Z,1.40
2019-05-29T03:10:08.092Z,1.50
2019-05-29T03:12:37.685Z,1.35
2019-05-29T03:15:07.427Z,1.30
2019-05-29T03:17:36.807Z,1.30
2019-05-29T03:20:09.125Z,1.45
2019-05-29T03:22:38.449Z,1.00
2019-05-29T03:25:07.821Z,1.40
2019-05-29T03:27:38.384Z,1.30
2019-05-29T03:30:08.795Z,1.25
2019-05-29T03:32:46.141Z,1.22
2019-05-29T03:35:09.276Z,1.10
2019-05-29T03:37:38.998Z,1.57
2019-05-29T03:40:09.392Z,1.30
2019-05-29T03:42:39.271Z,1.20
2019-05-29T03:45:08.873Z,1.00
2019-05-29T03:47:38.188Z,1.15
2019-05-29T03:50:07.883Z,1.32
2019-05-29T03:52:38.898Z,1.22
2019-05-29T03:55:08.242Z,1.20
2019-05-29T03:57:38.277Z,1.10
2019-05-29T04:00:08.070Z,1.27
2019-05-29T04:02:38.269Z,1.10
2019-05-29T04:05:09.562Z,1.10
2019-05-29T04:07:38.854Z,1.22
2019-05-29T04:10:08.796Z,1.10
2019-05-29T04:12:38.400Z,1.10
2019-05-29T04:15:08.130Z,1.00
2019-05-29T04:17:38.997Z,1.25
2019-05-29T04:20:08.869Z,1.20
2019-05-29T04:22:41.431Z,1.12
2019-05-29T04:25:10.964Z,1.35
2019-05-29T04:27:42.261Z,1.50
2019-05-29T04:30:13.094Z,1.45
2019-05-29T04:32:42.420Z,1.60
2019-05-29T04:35:11.787Z,1.27
2019-05-29T04:37:41.105Z,1.40
2019-05-29T04:40:10.843Z,1.35
2019-05-29T04:42:40.370Z,1.50
2019-05-29T04:45:10.286Z,1.37
2019-05-29T04:47:39.912Z,1.27
2019-05-29T04:50:10.524Z,1.20
2019-05-29T04:52:40.471Z,1.60
2019-05-29T04:55:10.059Z,1.02
2019-05-29T04:57:39.522Z,1.22
2019-05-29T05:00:09.987Z,1.57
2019-05-29T05:02:39.566Z,1.50
2019-05-29T05:05:09.611Z,1.42
2019-05-29T05:07:39.664Z,1.37
2019-05-29T05:10:10.238Z,1.35
2019-05-29T05:12:40.399Z,1.57
2019-05-29T05:15:11.819Z,2.00
2019-05-29T05:17:41.115Z,1.82
2019-05-29T05:20:10.560Z,2.65
2019-05-29T05:22:40.904Z,2.52
2019-05-29T05:25:10.686Z,2.35
2019-05-29T05:27:40.671Z,2.10
2019-05-29T05:30:10.253Z,2.45
2019-05-29T05:32:40.937Z,1.95
2019-05-29T05:35:14.256Z,2.58
2019-05-29T05:37:41.616Z,2.03
2019-05-29T05:40:11.082Z,1.75
2019-05-29T05:42:41.277Z,2.47
2019-05-29T05:45:10.835Z,1.87
2019-05-29T05:47:53.515Z,2.37
2019-05-29T05:50:11.324Z,1.80
2019-05-29T05:52:41.638Z,1.92
2019-05-29T05:55:11.152Z,1.75
2019-05-29T05:57:41.738Z,2.10
2019-05-29T06:00:11.681Z,1.60
2019-05-29T06:02:42.143Z,1.62
2019-05-29T06:05:12.373Z,1.60
2019-05-29T06:07:42.518Z,1.75
2019-05-29T06:10:12.025Z,1.47
2019-05-29T06:12:42.730Z,1.67
2019-05-29T06:15:12.310Z,1.35
2019-05-29T06:17:51.433Z,1.92
2019-05-29T06:20:13.022Z,1.57
2019-05-29T06:22:43.978Z,1.77
2019-05-29T06:25:13.542Z,1.75
2019-05-29T06:27:43.347Z,1.62
2019-05-29T06:30:14.314Z,1.40
2019-05-29T06:32:43.710Z,1.80
2019-05-29T06:35:13.088Z,1.37
2019-05-29T06:37:43.662Z,1.42
2019-05-29T06:40:15.156Z,1.77
2019-05-29T06:42:44.449Z,1.50
2019-05-29T06:45:15.943Z,1.55
2019-05-29T06:47:45.216Z,1.32
2019-05-29T06:50:14.599Z,1.45
2019-05-29T06:52:43.906Z,1.40
2019-05-29T06:55:13.301Z,1.22
2019-05-29T06:57:43.101Z,1.57
2019-05-29T07:00:13.735Z,1.55
2019-05-29T07:02:44.879Z,1.30
2019-05-29T07:05:14.365Z,1.45
2019-05-29T07:07:44.523Z,1.40
2019-05-29T07:10:14.155Z,1.55
2019-05-29T07:12:44.516Z,1.25
2019-05-29T07:15:15.136Z,1.35
2019-05-29T07:17:44.510Z,1.30
2019-05-29T07:20:14.042Z,1.50
2019-05-29T07:22:43.442Z,1.82
2019-05-29T07:25:12.834Z,1.40
2019-05-29T07:27:42.900Z,1.40
2019-05-29T07:30:13.385Z,1.62
2019-05-29T07:32:46.426Z,1.30
2019-05-29T07:35:14.182Z,1.02
2019-05-29T07:37:43.864Z,1.37
2019-05-29T07:40:13.573Z,1.22
2019-05-29T07:42:49.762Z,1.20
2019-05-29T07:45:14.367Z,1.40
2019-05-29T07:47:44.714Z,1.22
2019-05-29T07:50:14.198Z,1.12
2019-05-29T07:52:45.352Z,1.37
2019-05-29T07:55:14.611Z,1.32
2019-05-29T07:57:44.908Z,1.30
2019-05-29T08:00:15.577Z,1.40
2019-05-29T08:02:45.435Z,1.25
2019-05-29T08:05:15.000Z,1.15
2019-05-29T08:07:45.444Z,1.35
2019-05-29T08:10:15.276Z,1.40
2019-05-29T08:12:50.506Z,1.10
2019-05-29T08:15:16.425Z,1.55
2019-05-29T08:17:46.192Z,1.12
2019-05-29T08:20:15.650Z,1.20
2019-05-29T08:22:46.304Z,1.37
2019-05-29T08:25:15.727Z,1.90
2019-05-29T08:27:45.032Z,1.30
2019-05-29T08:30:15.286Z,1.25
2019-05-29T08:32:45.365Z,1.00
2019-05-29T08:35:14.906Z,1.30
2019-05-29T08:37:44.995Z,1.10
2019-05-29T08:40:15.727Z,1.12
2019-05-29T08:42:45.281Z,1.12
2019-05-29T08:45:14.984Z,1.52
2019-05-29T08:47:45.512Z,1.12
2019-05-29T08:50:18.565Z,1.05
2019-05-29T08:52:47.973Z,1.10
2019-05-29T08:55:17.751Z,1.35
2019-05-29T08:57:48.282Z,1.07
2019-05-29T09:00:19.323Z,0.95
2019-05-29T09:02:49.222Z,0.95
2019-05-29T09:05:19.901Z,0.90
2019-05-29T09:07:49.960Z,1.20
2019-05-29T09:10:20.366Z,1.40
2019-05-29T09:13:01.799Z,0.85
2019-05-29T09:15:21.905Z,1.25
2019-05-29T09:17:51.372Z,1.32
2019-05-29T09:20:32.012Z,1.30
2019-05-29T09:22:51.713Z,0.90
2019-05-29T09:25:21.262Z,0.82
2019-05-29T09:27:51.659Z,1.02
2019-05-29T09:30:21.787Z,0.98
2019-05-29T09:32:53.033Z,1.10
2019-05-29T09:35:23.716Z,1.22
2019-05-29T09:37:59.587Z,1.07
2019-05-29T09:40:29.844Z,1.20
2019-05-29T09:42:59.254Z,1.10
2019-05-29T09:45:28.571Z,0.90
2019-05-29T09:47:57.926Z,0.85
2019-05-29T09:50:27.800Z,0.95
2019-05-29T09:52:58.978Z,1.37
2019-05-29T09:55:28.217Z,1.22
2019-05-29T09:57:58.656Z,1.10
2019-05-29T10:00:29.387Z,1.15
2019-05-29T10:02:59.439Z,1.32
2019-05-29T10:05:30.484Z,1.10
2019-05-29T10:07:59.893Z,0.90
2019-05-29T10:10:29.340Z,1.10
2019-05-29T10:12:59.883Z,1.00
2019-05-29T10:15:29.357Z,0.90
2019-05-29T10:17:58.688Z,0.90
2019-05-29T10:20:28.621Z,0.90
2019-05-29T10:22:58.997Z,1.00
2019-05-29T10:25:28.396Z,0.95
2019-05-29T10:27:57.723Z,1.02
2019-05-29T10:30:27.567Z,1.00
2019-05-29T10:32:56.907Z,0.80
2019-05-29T10:35:26.229Z,0.93
2019-05-29T10:37:55.547Z,0.90
2019-05-29T10:40:24.901Z,1.10
2019-05-29T10:42:54.278Z,1.10
2019-05-29T10:45:23.718Z,0.80
2019-05-29T10:47:54.167Z,0.90
2019-05-29T10:50:24.572Z,0.90
2019-05-29T10:52:54.320Z,1.20
2019-05-29T10:55:24.021Z,0.80
2019-05-29T10:57:54.974Z,0.80
2019-05-29T11:00:24.746Z,0.70
2019-05-29T11:02:57.389Z,0.85
2019-05-29T11:05:26.171Z,0.90
2019-05-29T11:07:55.995Z,0.98
2019-05-29T11:10:25.505Z,1.05
2019-05-29T11:12:54.828Z,0.93
2019-05-29T11:15:24.312Z,1.00
2019-05-29T11:17:53.657Z,0.98
2019-05-29T11:20:23.223Z,1.10
2019-05-29T11:22:53.651Z,1.00
2019-05-29T11:25:27.459Z,0.93
2019-05-29T11:27:54.835Z,1.10
2019-05-29T11:30:24.713Z,1.10
2019-05-29T11:32:55.592Z,0.93
2019-05-29T11:35:25.073Z,0.95
2019-05-29T11:37:54.741Z,0.90
2019-05-29T11:40:24.306Z,1.05
2019-05-29T11:42:54.919Z,0.62
2019-05-29T11:45:24.403Z,0.75
2019-05-29T11:47:55.109Z,0.90
2019-05-29T11:50:27.323Z,0.90
2019-05-29T11:52:56.636Z,0.93
2019-05-29T11:55:25.964Z,0.80
2019-05-29T11:57:55.881Z,0.80
2019-05-29T12:00:25.465Z,0.70
2019-05-29T12:02:55.815Z,0.70
2019-05-29T12:05:25.246Z,1.02
2019-05-29T12:07:55.482Z,0.90
2019-05-29T12:10:25.637Z,0.90
2019-05-29T12:12:55.515Z,1.00
2019-05-29T12:15:24.868Z,0.90
2019-05-29T12:18:08.739Z,0.90
2019-05-29T12:20:28.088Z,0.70
2019-05-29T12:23:18.631Z,0.80
2019-05-29T12:25:28.804Z,0.90
2019-05-29T12:27:59.211Z,0.90
2019-05-29T12:30:28.976Z,0.90
2019-05-29T12:32:59.165Z,0.80
2019-05-29T12:35:28.718Z,0.93
2019-05-29T12:37:59.323Z,0.80
2019-05-29T12:40:28.950Z,1.02
2019-05-29T12:43:00.117Z,0.90
2019-05-29T12:45:29.634Z,0.70
2019-05-29T12:48:06.594Z,0.75
2019-05-29T12:50:34.559Z,0.72
2019-05-29T12:53:04.605Z,0.70
2019-05-29T12:55:33.930Z,0.80
2019-05-29T12:58:04.465Z,0.75
2019-05-29T13:00:33.936Z,0.60
2019-05-29T13:03:05.057Z,0.70
2019-05-29T13:05:35.429Z,0.80
2019-05-29T13:08:05.356Z,0.90
2019-05-29T13:10:34.888Z,0.80
2019-05-29T13:13:10.026Z,0.80
2019-05-29T13:15:35.368Z,0.80
2019-05-29T13:18:09.495Z,0.78
2019-05-29T13:20:36.022Z,0.85
2019-05-29T13:23:07.231Z,0.93
2019-05-29T13:25:36.480Z,0.85
2019-05-29T13:28:06.195Z,0.68
2019-05-29T13:30:35.505Z,0.72
2019-05-29T13:33:07.412Z,1.10
2019-05-29T13:35:35.887Z,0.50
2019-05-29T13:38:05.303Z,0.80
2019-05-29T13:40:34.645Z,0.82
2019-05-29T13:43:11.430Z,0.60
2019-05-29T13:45:35.145Z,0.75
2019-05-29T13:48:05.449Z,0.72
2019-05-29T13:50:34.878Z,0.75
2019-05-29T13:53:05.377Z,0.70
2019-05-29T13:55:36.224Z,0.57
2019-05-29T13:58:05.912Z,0.93
2019-05-29T14:00:35.418Z,0.90
2019-05-29T14:03:06.946Z,0.70
2019-05-29T14:05:36.415Z,0.82
2019-05-29T14:08:07.109Z,1.00
2019-05-29T14:10:36.618Z,0.82
2019-05-29T14:13:07.422Z,0.75
2019-05-29T14:15:36.774Z,0.75
2019-05-29T14:18:07.103Z,0.88
2019-05-29T14:20:36.573Z,0.70
2019-05-29T14:23:05.875Z,0.70
2019-05-29T14:25:35.195Z,0.70
2019-05-29T14:28:04.615Z,0.70
2019-05-29T14:30:33.911Z,0.80
2019-05-29T14:33:04.406Z,0.70
2019-05-29T14:35:33.919Z,0.80
2019-05-29T14:38:06.943Z,0.60
2019-05-29T14:40:34.247Z,0.70
2019-05-29T14:43:08.142Z,0.70
2019-05-29T14:45:35.848Z,0.82
2019-05-29T14:48:06.216Z,0.70
2019-05-29T14:50:36.774Z,1.10
2019-05-29T14:53:07.293Z,0.80
2019-05-29T14:55:36.726Z,0.95
2019-05-29T14:58:06.027Z,0.85
2019-05-29T15:00:35.359Z,0.90
2019-05-29T15:03:05.280Z,0.90
2019-05-29T15:05:34.640Z,0.80
2019-05-29T15:08:03.959Z,0.90
2019-05-29T15:10:33.302Z,1.20
2019-05-29T15:13:04.360Z,0.98
2019-05-29T15:15:33.713Z,1.00
2019-05-29T15:18:03.123Z,0.90
2019-05-29T15:20:33.391Z,0.80
2019-05-29T15:23:03.366Z,0.90
2019-05-29T15:25:32.809Z,0.80
2019-05-29T15:28:02.140Z,1.17
2019-05-29T15:30:31.439Z,1.07
2019-05-29T15:33:00.861Z,1.25
2019-05-29T15:35:30.138Z,1.15
2019-05-29T15:37:59.463Z,0.90
2019-05-29T15:40:28.757Z,1.55
2019-05-29T15:42:58.106Z,1.00
2019-05-29T15:45:28.504Z,1.45
2019-05-29T15:47:57.863Z,1.10
2019-05-29T15:50:27.163Z,0.98
2019-05-29T15:52:56.712Z,0.90
2019-05-29T15:55:33.602Z,1.20
2019-05-29T15:57:57.130Z,0.95
2019-05-29T16:00:27.405Z,1.45
2019-05-29T16:02:56.726Z,1.10
2019-05-29T16:05:26.099Z,0.90
2019-05-29T16:07:55.520Z,1.02
2019-05-29T16:10:25.096Z,1.30
2019-05-29T16:12:54.416Z,1.47
2019-05-29T16:15:23.893Z,1.40
2019-05-29T16:17:53.218Z,1.30
2019-05-29T16:20:24.255Z,1.40
2019-05-29T16:22:53.584Z,1.22
2019-05-29T16:25:37.827Z,1.37
2019-05-29T16:27:55.061Z,1.52
2019-05-29T16:30:24.424Z,1.07
2019-05-29T16:32:53.754Z,1.15
2019-05-29T16:35:24.097Z,1.30
2019-05-29T16:37:54.528Z,1.27
2019-05-29T16:40:23.972Z,1.35
2019-05-29T16:42:53.298Z,1.10
2019-05-29T16:45:22.666Z,1.27
2019-05-29T16:47:52.141Z,1.40
2019-05-29T16:50:22.980Z,1.40
2019-05-29T16:52:52.338Z,1.37
2019-05-29T16:55:21.629Z,1.60
2019-05-29T16:57:50.960Z,1.57
2019-05-29T17:00:21.703Z,2.12
2019-05-29T17:02:51.304Z,2.62
2019-05-29T17:05:22.132Z,2.40
2019-05-29T17:07:51.675Z,2.20
2019-05-29T17:10:24.630Z,2.30
2019-05-29T17:12:54.106Z,1.98
2019-05-29T17:15:24.682Z,2.10
2019-05-29T17:17:54.166Z,2.00
2019-05-29T17:20:40.831Z,1.90
2019-05-29T17:23:10.534Z,2.20
2019-05-29T17:25:39.828Z,2.02
2019-05-29T17:28:09.130Z,1.57
2019-05-29T17:30:38.497Z,1.80
2019-05-29T17:33:07.937Z,1.90
2019-05-29T17:35:37.310Z,1.95
2019-05-29T17:38:06.756Z,1.90
2019-05-29T17:40:36.064Z,1.85
2019-05-29T17:43:05.639Z,2.30
2019-05-29T17:45:35.165Z,1.40
2019-05-29T17:48:04.701Z,1.67
2019-05-29T17:50:34.025Z,1.72
2019-05-29T17:53:03.332Z,2.05
2019-05-29T17:55:32.830Z,2.12
2019-05-29T17:58:02.215Z,1.77
2019-05-29T18:00:31.622Z,1.62
2019-05-29T18:03:01.086Z,1.77
2019-05-29T18:05:30.484Z,2.65
2019-05-29T18:08:01.834Z,2.67
2019-05-29T18:10:30.949Z,2.47
2019-05-29T18:13:01.320Z,2.87
2019-05-29T18:15:30.921Z,2.65
2019-05-29T18:18:00.221Z,2.37
2019-05-29T18:20:29.552Z,3.70
2019-05-29T18:22:58.860Z,2.58
2019-05-29T18:25:28.229Z,2.50
2019-05-29T18:27:57.572Z,2.10
2019-05-29T18:30:28.674Z,2.02
2019-05-29T18:32:58.187Z,2.20
2019-05-29T18:35:27.586Z,1.80
2019-05-29T18:37:56.894Z,1.98
2019-05-29T18:40:26.437Z,2.02
2019-05-29T18:42:55.788Z,1.30
2019-05-29T18:45:26.626Z,1.62
2019-05-29T18:47:56.420Z,1.50
2019-05-29T18:50:25.768Z,1.50
2019-05-29T18:52:55.068Z,1.65
2019-05-29T18:55:24.908Z,1.40
2019-05-29T18:57:55.425Z,1.67
2019-05-29T19:00:25.435Z,1.52
2019-05-29T19:02:54.773Z,2.10
2019-05-29T19:05:24.088Z,2.22
2019-05-29T19:07:53.461Z,1.70
2019-05-29T19:10:23.677Z,2.20
2019-05-29T19:12:53.046Z,1.75
2019-05-29T19:15:23.749Z,1.60
2019-05-29T19:17:53.187Z,1.80
2019-05-29T19:20:24.110Z,1.60
2019-05-29T19:22:53.568Z,1.67
2019-05-29T19:25:22.900Z,1.80
2019-05-29T19:27:52.763Z,1.80
2019-05-29T19:30:22.871Z,1.80
2019-05-29T19:32:52.336Z,1.70
2019-05-29T19:35:21.737Z,1.60
2019-05-29T19:37:51.031Z,1.50
2019-05-29T19:40:20.715Z,1.82
2019-05-29T19:42:50.056Z,2.08
2019-05-29T19:45:20.212Z,1.30
2019-05-29T19:47:49.515Z,1.40
2019-05-29T19:50:19.189Z,1.55
2019-05-29T19:52:48.558Z,1.72
2019-05-29T19:55:18.127Z,1.62
2019-05-29T19:57:55.625Z,1.50
2019-05-29T20:00:19.028Z,1.75
2019-05-29T20:02:48.393Z,1.20
2019-05-29T20:05:17.722Z,1.55
2019-05-29T20:07:47.060Z,1.57
2019-05-29T20:10:16.424Z,1.30
2019-05-29T20:12:45.797Z,1.67
2019-05-29T20:15:15.734Z,1.40
2019-05-29T20:17:45.032Z,1.20
2019-05-29T20:20:14.335Z,1.40
2019-05-29T20:22:43.648Z,1.98
2019-05-29T20:25:14.164Z,1.30
2019-05-29T20:27:43.502Z,1.42
2019-05-29T20:30:17.718Z,1.62
2019-05-29T20:32:47.772Z,1.30
2019-05-29T20:35:17.541Z,1.60
2019-05-29T20:37:46.872Z,1.47
2019-05-29T20:40:18.210Z,1.40
2019-05-29T20:42:47.534Z,1.30
2019-05-29T20:45:17.014Z,1.10
2019-05-29T20:47:46.377Z,0.88
2019-05-29T20:50:15.843Z,1.00
2019-05-29T20:52:46.232Z,1.20
2019-05-29T20:55:16.273Z,1.50
2019-05-29T20:57:45.596Z,1.40
2019-05-29T21:00:17.130Z,1.50
2019-05-29T21:02:46.446Z,1.30
2019-05-29T21:05:18.085Z,1.10
2019-05-29T21:07:47.425Z,1.20
2019-05-29T21:10:16.901Z,1.37
2019-05-29T21:12:47.733Z,1.20
2019-05-29T21:15:17.270Z,1.35
2019-05-29T21:17:46.609Z,1.10
2019-05-29T21:20:16.171Z,1.15
2019-05-29T21:22:45.496Z,1.60
2019-05-29T21:25:19.168Z,0.98
2019-05-29T21:27:49.318Z,1.10
2019-05-29T21:30:22.901Z,1.40
2019-05-29T21:32:52.298Z,1.30
2019-05-29T21:35:22.569Z,1.50
2019-05-29T21:37:51.932Z,1.10
2019-05-29T21:40:21.249Z,1.55
2019-05-29T21:42:50.579Z,1.40
2019-05-29T21:45:20.061Z,1.47
2019-05-29T21:47:49.360Z,1.45
2019-05-29T21:50:18.726Z,1.62
2019-05-29T21:52:48.036Z,1.52
2019-05-29T21:55:17.409Z,1.45
2019-05-29T21:57:49.847Z,1.40
2019-05-29T22:00:19.826Z,1.60
2019-05-29T22:02:50.763Z,1.57
2019-05-29T22:05:20.442Z,1.25
2019-05-29T22:07:49.752Z,1.27
2019-05-29T22:10:19.289Z,1.42
2019-05-29T22:12:48.700Z,1.20
2019-05-29T22:15:18.134Z,1.40
2019-05-29T22:17:47.415Z,1.35
2019-05-29T22:20:16.804Z,1.30
2019-05-29T22:22:46.175Z,1.25
2019-05-29T22:25:15.676Z,1.32
2019-05-29T22:27:44.985Z,1.25
2019-05-29T22:30:15.898Z,1.70
2019-05-29T22:32:45.283Z,1.40
2019-05-29T22:35:14.755Z,1.90
2019-05-29T22:37:44.105Z,1.62
2019-05-29T22:40:13.620Z,1.82
2019-05-29T22:42:43.997Z,1.70
2019-05-29T22:45:13.367Z,1.77
2019-05-29T22:47:42.672Z,2.10
2019-05-29T22:50:12.357Z,1.52
2019-05-29T22:52:41.658Z,2.42
2019-05-29T22:55:10.964Z,1.75
2019-05-29T22:57:40.257Z,2.10
2019-05-29T23:00:10.867Z,2.27
2019-05-29T23:02:40.235Z,2.20
2019-05-29T23:05:09.656Z,2.08
2019-05-29T23:07:38.964Z,2.40
2019-05-29T23:10:08.838Z,2.50
2019-05-29T23:12:38.208Z,2.40
2019-05-29T23:15:08.043Z,2.27
2019-05-29T23:17:37.346Z,2.45
2019-05-29T23:20:07.362Z,2.42
2019-05-29T23:22:36.510Z,2.90
2019-05-29T23:25:06.299Z,3.20
2019-05-29T23:27:36.077Z,2.65
2019-05-29T23:30:06.904Z,2.75
2019-05-29T23:32:36.214Z,2.98
2019-05-29T23:35:06.198Z,3.00
2019-05-29T23:37:36.563Z,2.50
2019-05-29T23:40:05.786Z,2.70
2019-05-29T23:42:34.937Z,3.17
2019-05-29T23:45:06.397Z,2.55
2019-05-29T23:47:35.693Z,2.90
2019-05-29T23:50:08.474Z,2.80
2019-05-29T23:52:38.042Z,2.58
2019-05-29T23:55:07.783Z,2.52
2019-05-29T23:57:37.089Z,2.92
